Lesley Pg — MXUG5 — position and weather

sailwx.info

Track history (hours):
 
Tides and Currents Weather Stations Pressure Air Temp Water Temp Dewpoint Dewpoint Depression Visibility Wind Speed Wind Dir Waves Ship Positions

Lesley Pg

Last reported at 2014-Sep-18 06:07 UTC. Time now 2014-Sep-23 08:25 UTC.
Position N 15°50' W 061°45'.

Length 102 m; draft 5.2 m.

Type: Tanker. MMSI: 234910000.

Date/timePositionNaut miles runAvg speedWind from/ knotsBaromVisibWave heightAir tempDewpointWater temp
2014-Sep-18 06:07N 15°50' W 061°45'4011.3
2014-Sep-18 02:32N 16°23' W 062°09'1111.0
2014-Sep-18 01:31N 16°33' W 062°15'1211.1
2014-Sep-18 00:27N 16°43' W 062°22'15 0.7
2014-Sep-17 03:32N 16°55' W 062°31'1311.2
2014-Sep-17 02:20N 16°44' W 062°23'911.4
2014-Sep-17 01:32N 16°36' W 062°18'52 1.2
2014-Sep-15 07:20N 15°55' W 061°45'3310.3
2014-Sep-15 04:08N 16°21' W 062°07'810.7
2014-Sep-15 03:22N 16°28' W 062°12'910.6
2014-Sep-15 02:33N 16°35' W 062°17'1110.6
2014-Sep-15 01:33N 16°44' W 062°23'1410.6
2014-Sep-15 00:17N 16°55' W 062°31'63 8.0
2014-Sep-14 16:22N 17°50' W 063°04'1111.3
2014-Sep-14 15:25N 18°00' W 063°05'1 0.8
2014-Sep-14 14:32N 18°01' W 063°05'0 0.0
2014-Sep-13 18:26N 18°01' W 063°05'0 0.0
2014-Sep-13 17:14N 18°01' W 063°05'0 0.0
2014-Sep-13 13:14N 18°01' W 063°05'0 0.0
2014-Sep-13 11:18N 18°01' W 063°05'1 0.1
2014-Sep-13 06:23N 18°01' W 063°05'0 0.0
2014-Sep-13 04:11N 18°01' W 063°05'0 0.0
2014-Sep-13 03:11N 18°01' W 063°05'0 0.0
2014-Sep-13 01:26N 18°01' W 063°05'0 0.0
2014-Sep-13 00:23N 18°01' W 063°05'2 2.2
2014-Sep-12 23:30N 17°59' W 063°05'  
2014-Sep-10 15:15N 17°02' W 061°57'811.2
2014-Sep-10 14:34N 16°55' W 061°57'1111.4
2014-Sep-10 13:33N 16°43' W 061°56'1111.4
2014-Sep-10 12:33N 16°32' W 061°55'4210.2
2014-Sep-10 08:29N 15°51' W 061°46'  
Track history (hours):
 
Tides and Currents Weather Stations Pressure Air Temp Water Temp Dewpoint Dewpoint Depression Visibility Wind Speed Wind Dir Waves Ship Positions

Lesley Pg

Last reported at 2014-Sep-18 06:07 UTC. Time now 2014-Sep-23 08:25 UTC.
Position N 15°50' W 061°45'.

Length 102 m; draft 5.2 m.

Type: Tanker. MMSI: 234910000.

Date/timePositionNaut miles runAvg speedWind from/ knotsBaromVisibWave heightAir tempDewpointWater temp
2014-Sep-18 06:07N 15°50' W 061°45'4011.3
2014-Sep-18 02:32N 16°23' W 062°09'1111.0
2014-Sep-18 01:31N 16°33' W 062°15'1211.1
2014-Sep-18 00:27N 16°43' W 062°22'15 0.7
2014-Sep-17 03:32N 16°55' W 062°31'1311.2
2014-Sep-17 02:20N 16°44' W 062°23'911.4
2014-Sep-17 01:32N 16°36' W 062°18'52 1.2
2014-Sep-15 07:20N 15°55' W 061°45'3310.3
2014-Sep-15 04:08N 16°21' W 062°07'810.7
2014-Sep-15 03:22N 16°28' W 062°12'910.6
2014-Sep-15 02:33N 16°35' W 062°17'1110.6
2014-Sep-15 01:33N 16°44' W 062°23'1410.6
2014-Sep-15 00:17N 16°55' W 062°31'63 8.0
2014-Sep-14 16:22N 17°50' W 063°04'1111.3
2014-Sep-14 15:25N 18°00' W 063°05'1 0.8
2014-Sep-14 14:32N 18°01' W 063°05'0 0.0
2014-Sep-13 18:26N 18°01' W 063°05'0 0.0
2014-Sep-13 17:14N 18°01' W 063°05'0 0.0
2014-Sep-13 13:14N 18°01' W 063°05'0 0.0
2014-Sep-13 11:18N 18°01' W 063°05'1 0.1
2014-Sep-13 06:23N 18°01' W 063°05'0 0.0
2014-Sep-13 04:11N 18°01' W 063°05'0 0.0
2014-Sep-13 03:11N 18°01' W 063°05'0 0.0
2014-Sep-13 01:26N 18°01' W 063°05'0 0.0
2014-Sep-13 00:23N 18°01' W 063°05'2 2.2
2014-Sep-12 23:30N 17°59' W 063°05'  
2014-Sep-10 15:15N 17°02' W 061°57'811.2
2014-Sep-10 14:34N 16°55' W 061°57'1111.4
2014-Sep-10 13:33N 16°43' W 061°56'1111.4
2014-Sep-10 12:33N 16°32' W 061°55'4210.2
2014-Sep-10 08:29N 15°51' W 061°46'  

Dump ship's entire track history